Time;durP1;ratioP1;P1;durP2;ratioP2;P2;SDS_P1;SDS_P2;PMS_P1;PMS_P2;Temp;Humidity;BMP_temperature;BMP_pressure;BME280_temperature;BME280_humidity;BME280_pressure;Samples;Min_cycle;Max_cycle;Signal;HPM_P1;HPM_P2
2023/06/30 00:01:33;;;;;;;33.20;20.90;;;19.20;99.90;;;;;;5052247;28;20225;-60
2023/06/30 00:04:01;;;;;;;29.03;22.30;;;19.20;99.90;;;;;;5053746;28;20198;-60
2023/06/30 00:06:29;;;;;;;25.73;20.23;;;19.20;99.90;;;;;;5053987;28;20716;-60
2023/06/30 00:08:57;;;;;;;25.70;20.30;;;19.20;99.90;;;;;;5048085;28;20248;-60
2023/06/30 00:11:24;;;;;;;24.77;20.03;;;19.20;99.90;;;;;;5053464;28;20268;-60
2023/06/30 00:13:52;;;;;;;23.67;19.47;;;19.30;99.90;;;;;;5053362;28;20210;-60
2023/06/30 00:16:19;;;;;;;23.13;18.63;;;19.30;99.90;;;;;;5052091;28;20206;-60
2023/06/30 00:18:47;;;;;;;26.70;18.80;;;19.30;99.90;;;;;;5053491;28;20205;-60
2023/06/30 00:21:15;;;;;;;22.43;17.70;;;19.20;99.90;;;;;;5051677;28;20279;-60
2023/06/30 00:23:42;;;;;;;27.90;17.73;;;19.20;99.90;;;;;;5053321;28;20290;-60
2023/06/30 00:26:11;;;;;;;23.90;18.77;;;19.20;99.90;;;;;;5053480;28;20279;-60
2023/06/30 00:28:38;;;;;;;23.30;18.27;;;19.20;99.90;;;;;;5053329;28;20259;-61
2023/06/30 00:31:05;;;;;;;25.30;18.23;;;19.30;99.90;;;;;;5052983;28;20279;-60
2023/06/30 00:33:32;;;;;;;24.50;18.40;;;19.30;99.90;;;;;;5050067;28;20201;-61
2023/06/30 00:35:59;;;;;;;21.93;17.87;;;19.30;99.90;;;;;;5053080;28;20201;-60
2023/06/30 00:38:25;;;;;;;22.77;17.67;;;19.30;99.90;;;;;;5053204;28;20205;-60
2023/06/30 00:40:52;;;;;;;25.43;20.47;;;19.30;99.90;;;;;;5053118;28;20198;-60
2023/06/30 00:43:21;;;;;;;25.17;18.77;;;19.30;99.90;;;;;;5053163;28;20232;-60
2023/06/30 00:45:48;;;;;;;23.00;17.57;;;19.30;99.90;;;;;;5050335;28;20247;-60
2023/06/30 00:48:17;;;;;;;23.77;18.40;;;19.20;99.90;;;;;;5053046;28;20202;-60
2023/06/30 00:50:44;;;;;;;21.67;17.50;;;19.20;99.90;;;;;;5052810;28;20321;-60
2023/06/30 00:53:13;;;;;;;20.27;16.93;;;19.20;99.90;;;;;;5051252;28;20263;-60
2023/06/30 00:55:40;;;;;;;24.03;17.97;;;19.20;99.90;;;;;;5053148;28;20289;-60
2023/06/30 00:58:08;;;;;;;22.80;17.73;;;19.20;99.90;;;;;;5050890;28;20216;-60
2023/06/30 01:00:36;;;;;;;24.23;19.30;;;19.20;99.90;;;;;;5052891;28;20197;-60
2023/06/30 01:03:13;;;;;;;21.17;18.10;;;19.30;99.90;;;;;;5049952;28;20213;-60
2023/06/30 01:05:47;;;;;;;24.27;17.83;;;19.20;99.90;;;;;;5052702;28;20197;-60
2023/06/30 01:08:18;;;;;;;21.67;16.63;;;19.30;99.90;;;;;;5051943;28;20229;-60
2023/06/30 01:10:47;;;;;;;25.80;18.70;;;19.20;99.90;;;;;;5051643;28;20247;-60
2023/06/30 01:13:15;;;;;;;25.83;18.37;;;19.20;99.90;;;;;;5052362;28;20582;-60
2023/06/30 01:15:45;;;;;;;24.50;18.40;;;19.20;99.90;;;;;;5045408;28;20206;-60
2023/06/30 01:18:13;;;;;;;25.00;18.07;;;19.20;99.90;;;;;;5044820;28;20206;-60
2023/06/30 01:20:41;;;;;;;23.90;19.00;;;19.20;99.90;;;;;;5051784;28;20256;-60
2023/06/30 01:23:13;;;;;;;22.00;17.43;;;19.20;99.90;;;;;;5043912;28;20251;-60
2023/06/30 01:25:41;;;;;;;22.30;18.23;;;19.20;99.90;;;;;;5052368;28;20580;-60
2023/06/30 01:28:09;;;;;;;22.50;17.33;;;19.20;99.90;;;;;;5052355;28;20202;-60
2023/06/30 01:30:36;;;;;;;22.30;17.43;;;19.20;99.90;;;;;;5052256;28;20218;-61
2023/06/30 01:33:05;;;;;;;23.73;18.10;;;19.20;99.90;;;;;;5050329;28;20269;-60
2023/06/30 01:35:32;;;;;;;25.03;18.37;;;19.30;99.90;;;;;;5052304;28;20233;-61
2023/06/30 01:38:01;;;;;;;20.73;17.33;;;19.30;99.90;;;;;;5052324;28;20212;-60
2023/06/30 01:40:29;;;;;;;24.07;17.87;;;19.30;99.90;;;;;;5052206;28;20194;-60
2023/06/30 01:42:58;;;;;;;20.77;16.07;;;19.20;99.90;;;;;;5050919;28;20222;-60
2023/06/30 01:45:25;;;;;;;24.27;17.03;;;19.20;99.90;;;;;;5051485;28;20205;-61
2023/06/30 01:47:54;;;;;;;22.80;16.97;;;19.20;99.90;;;;;;5051071;28;20671;-61
2023/06/30 01:50:23;;;;;;;22.27;16.60;;;19.20;99.90;;;;;;5051921;28;20213;-61
2023/06/30 01:52:50;;;;;;;28.27;17.27;;;19.10;99.90;;;;;;5051742;28;20225;-60
2023/06/30 01:55:17;;;;;;;26.67;18.63;;;19.10;99.90;;;;;;5051111;28;20284;-60
2023/06/30 01:57:44;;;;;;;20.77;16.13;;;19.10;99.90;;;;;;5049110;28;20206;-60
2023/06/30 02:00:12;;;;;;;22.67;17.07;;;19.00;99.90;;;;;;5051694;28;20193;-60
2023/06/30 02:02:40;;;;;;;20.07;16.77;;;19.00;99.90;;;;;;5051649;28;20225;-60
2023/06/30 02:05:07;;;;;;;23.47;18.27;;;19.00;99.90;;;;;;5051648;28;20197;-60
2023/06/30 02:07:35;;;;;;;22.13;17.40;;;19.00;99.90;;;;;;5050102;28;20248;-61
2023/06/30 02:10:03;;;;;;;20.47;16.67;;;18.90;99.90;;;;;;5046303;28;20668;-60
2023/06/30 02:12:33;;;;;;;21.87;17.50;;;19.00;99.90;;;;;;5041651;28;20286;-61
2023/06/30 02:15:00;;;;;;;21.20;16.83;;;19.00;99.90;;;;;;5057192;28;20201;-60
2023/06/30 02:17:28;;;;;;;21.90;16.23;;;19.00;99.90;;;;;;5050326;28;20201;-61
2023/06/30 02:19:55;;;;;;;23.87;16.87;;;19.00;99.90;;;;;;5049453;28;20194;-60
2023/06/30 02:22:22;;;;;;;23.00;17.73;;;18.90;99.90;;;;;;5055258;28;20711;-61
2023/06/30 02:24:50;;;;;;;24.03;17.80;;;18.90;99.90;;;;;;5057095;28;20251;-60
2023/06/30 02:27:17;;;;;;;21.67;17.50;;;18.90;99.90;;;;;;5058011;28;20555;-60
2023/06/30 02:29:44;;;;;;;19.17;15.27;;;18.90;99.90;;;;;;5052255;28;20284;-60
2023/06/30 02:32:11;;;;;;;21.47;15.80;;;18.90;99.90;;;;;;5050033;28;20753;-60
2023/06/30 02:34:38;;;;;;;25.30;19.33;;;18.90;99.90;;;;;;5057274;28;20255;-60
2023/06/30 02:37:05;;;;;;;22.37;17.33;;;18.90;99.90;;;;;;5057928;28;20217;-61
2023/06/30 02:39:32;;;;;;;24.83;17.97;;;18.80;99.90;;;;;;5056950;28;20663;-60
2023/06/30 02:42:01;;;;;;;23.93;17.77;;;18.80;99.90;;;;;;5056855;28;20738;-60
2023/06/30 02:44:28;;;;;;;22.63;16.17;;;18.80;99.90;;;;;;5057130;28;20259;-60
2023/06/30 02:46:55;;;;;;;22.67;17.33;;;18.80;99.90;;;;;;5057016;28;20198;-60
2023/06/30 02:49:22;;;;;;;26.97;18.60;;;18.80;99.90;;;;;;5057973;28;20202;-60
2023/06/30 02:51:49;;;;;;;25.17;17.90;;;18.70;99.90;;;;;;5057654;28;20283;-60
2023/06/30 02:54:16;;;;;;;23.17;17.43;;;18.70;99.90;;;;;;5056903;28;20687;-60
2023/06/30 02:56:43;;;;;;;22.17;16.53;;;18.70;99.90;;;;;;5056060;28;20252;-60
2023/06/30 02:59:11;;;;;;;21.23;15.43;;;18.70;99.90;;;;;;5057750;28;20201;-60
2023/06/30 03:01:40;;;;;;;19.47;15.70;;;18.70;99.90;;;;;;5057895;28;20226;-60
2023/06/30 03:04:07;;;;;;;21.03;15.80;;;18.60;99.90;;;;;;5054673;28;20212;-60
2023/06/30 03:06:33;;;;;;;18.27;14.60;;;18.60;99.90;;;;;;5055428;28;20201;-60
2023/06/30 03:09:00;;;;;;;19.70;15.10;;;18.60;99.90;;;;;;5055249;28;20339;-60
2023/06/30 03:11:27;;;;;;;24.83;15.93;;;18.60;99.90;;;;;;5057505;28;20217;-60
2023/06/30 03:13:54;;;;;;;20.30;15.97;;;18.70;99.90;;;;;;5056521;28;20661;-60
2023/06/30 03:16:23;;;;;;;19.00;15.00;;;18.60;99.90;;;;;;5055944;28;20205;-60
2023/06/30 03:18:50;;;;;;;23.40;17.13;;;18.70;99.90;;;;;;5056892;28;20201;-61
2023/06/30 03:21:17;;;;;;;21.87;17.43;;;18.70;99.90;;;;;;5053653;28;20711;-60
2023/06/30 03:23:45;;;;;;;21.67;15.57;;;18.60;99.90;;;;;;5056167;28;20652;-61
2023/06/30 03:26:13;;;;;;;21.13;16.27;;;18.60;99.90;;;;;;5056545;28;20625;-60
2023/06/30 03:28:40;;;;;;;21.90;16.90;;;18.60;99.90;;;;;;5056447;28;20205;-60
2023/06/30 03:31:07;;;;;;;19.87;15.27;;;18.60;99.90;;;;;;5052827;28;20221;-61
2023/06/30 03:33:36;;;;;;;20.40;14.37;;;18.60;99.90;;;;;;5052336;28;20251;-61
2023/06/30 03:36:03;;;;;;;19.17;15.27;;;18.60;99.90;;;;;;5052176;28;20634;-60
2023/06/30 03:38:29;;;;;;;20.00;16.37;;;18.60;99.90;;;;;;5052419;28;20201;-60
2023/06/30 03:40:56;;;;;;;23.50;18.30;;;18.60;99.90;;;;;;5052751;28;20208;-60
2023/06/30 03:43:23;;;;;;;22.73;16.57;;;18.60;99.90;;;;;;5050896;28;20630;-61
2023/06/30 03:45:50;;;;;;;25.00;17.87;;;18.60;99.90;;;;;;5052482;28;20686;-60
2023/06/30 03:48:17;;;;;;;21.23;16.17;;;18.60;99.90;;;;;;5054156;28;20260;-60
2023/06/30 03:50:46;;;;;;;20.23;16.00;;;18.50;99.90;;;;;;5052100;28;20221;-60
2023/06/30 03:53:13;;;;;;;19.10;15.43;;;18.50;99.90;;;;;;5052891;28;20210;-60
2023/06/30 03:55:40;;;;;;;20.07;16.03;;;18.60;99.90;;;;;;5050989;28;20205;-60
2023/06/30 03:58:06;;;;;;;20.80;16.90;;;18.50;99.90;;;;;;5050581;28;20201;-60
2023/06/30 04:00:33;;;;;;;22.83;17.67;;;18.50;99.90;;;;;;5052269;28;20202;-60
2023/06/30 04:03:00;;;;;;;23.70;17.47;;;18.50;99.90;;;;;;5052700;28;20222;-60
2023/06/30 04:05:27;;;;;;;20.40;16.93;;;18.50;99.90;;;;;;5051859;28;20696;-60
2023/06/30 04:07:56;;;;;;;26.77;16.90;;;18.50;99.90;;;;;;5051328;28;20252;-60
2023/06/30 04:10:23;;;;;;;23.90;16.00;;;18.50;99.90;;;;;;5049608;28;20254;-60
2023/06/30 04:12:50;;;;;;;21.43;16.03;;;18.50;99.90;;;;;;5051561;28;20222;-60
2023/06/30 04:15:17;;;;;;;21.93;15.30;;;18.50;99.90;;;;;;5052714;28;20649;-61
2023/06/30 04:17:43;;;;;;;23.83;16.67;;;18.50;99.90;;;;;;5050594;28;20202;-60
2023/06/30 04:20:15;;;;;;;19.10;15.47;;;18.50;99.90;;;;;;5051662;28;20194;-60
2023/06/30 04:22:43;;;;;;;21.80;14.90;;;18.60;99.90;;;;;;5047449;28;20226;-60
2023/06/30 04:25:11;;;;;;;21.23;15.53;;;18.60;99.90;;;;;;5051391;28;20202;-61
2023/06/30 04:27:38;;;;;;;18.67;15.10;;;18.70;99.90;;;;;;5051351;28;20288;-60
2023/06/30 04:30:07;;;;;;;19.23;15.20;;;18.70;99.90;;;;;;5050190;28;20255;-60
2023/06/30 04:32:34;;;;;;;21.20;14.80;;;18.70;99.90;;;;;;5047929;28;20226;-60
2023/06/30 04:35:01;;;;;;;21.03;16.57;;;18.70;99.90;;;;;;5048523;28;20194;-60
2023/06/30 04:37:32;;;;;;;23.37;14.90;;;18.70;99.90;;;;;;5051461;28;20226;-60
2023/06/30 04:39:59;;;;;;;21.80;16.47;;;18.70;99.90;;;;;;5049412;28;20659;-60
2023/06/30 04:42:32;;;;;;;22.17;16.83;;;18.80;99.90;;;;;;5051448;28;20773;-60
2023/06/30 04:44:59;;;;;;;26.27;15.97;;;18.80;99.90;;;;;;5050908;28;20206;-60
2023/06/30 04:47:27;;;;;;;24.83;15.80;;;18.70;99.90;;;;;;5050419;28;20794;-61
2023/06/30 04:49:54;;;;;;;16.37;13.83;;;18.80;99.90;;;;;;5050424;28;20255;-60
2023/06/30 04:52:21;;;;;;;21.40;14.67;;;18.80;99.90;;;;;;5052603;28;20222;-60
2023/06/30 04:54:48;;;;;;;20.87;14.80;;;18.80;99.90;;;;;;5051932;28;20244;-61
2023/06/30 04:57:15;;;;;;;18.70;14.03;;;18.80;99.90;;;;;;5050082;28;20240;-60
2023/06/30 04:59:43;;;;;;;26.17;15.10;;;18.80;99.90;;;;;;5049971;28;20263;-60
2023/06/30 05:02:10;;;;;;;21.10;15.67;;;18.70;99.90;;;;;;5050891;28;20214;-61
2023/06/30 05:04:37;;;;;;;22.27;14.33;;;18.70;99.90;;;;;;5046079;28;20202;-60
2023/06/30 05:07:04;;;;;;;22.43;15.17;;;18.70;99.90;;;;;;5050699;28;20255;-60
2023/06/30 05:09:31;;;;;;;19.10;14.93;;;18.70;99.90;;;;;;5050791;28;20618;-61
2023/06/30 05:11:58;;;;;;;18.30;14.57;;;18.80;99.90;;;;;;5047796;28;20264;-60
2023/06/30 05:14:25;;;;;;;21.63;16.37;;;18.80;99.90;;;;;;5043358;28;20212;-60
2023/06/30 05:16:53;;;;;;;26.20;18.23;;;18.80;99.90;;;;;;5046857;28;20660;-60
2023/06/30 05:19:20;;;;;;;28.63;20.90;;;18.90;99.90;;;;;;5049667;28;20206;-60
2023/06/30 05:21:47;;;;;;;26.97;20.03;;;18.90;99.90;;;;;;5050697;28;20248;-60
2023/06/30 05:24:14;;;;;;;27.50;18.93;;;19.00;99.90;;;;;;5051846;28;20198;-60
2023/06/30 05:26:42;;;;;;;23.60;16.83;;;19.00;99.90;;;;;;5051119;28;20232;-60
2023/06/30 05:29:10;;;;;;;22.70;17.03;;;18.90;99.90;;;;;;5045243;28;20554;-61
2023/06/30 05:31:37;;;;;;;22.03;15.37;;;19.00;99.90;;;;;;5050714;28;20316;-61
2023/06/30 05:34:06;;;;;;;21.07;17.07;;;19.00;99.90;;;;;;5045537;28;20198;-60
2023/06/30 05:36:32;;;;;;;20.30;15.73;;;19.10;99.90;;;;;;5049869;28;20202;-60
2023/06/30 05:38:59;;;;;;;20.67;16.63;;;19.10;99.90;;;;;;5051258;28;20201;-61
2023/06/30 05:41:26;;;;;;;23.23;16.03;;;19.10;99.90;;;;;;5047425;28;20242;-60
2023/06/30 05:43:53;;;;;;;24.47;16.80;;;19.20;99.90;;;;;;5048974;28;20197;-60
2023/06/30 05:46:20;;;;;;;18.80;14.53;;;19.20;99.90;;;;;;5050745;28;20659;-60
2023/06/30 05:48:47;;;;;;;21.13;15.47;;;19.20;99.90;;;;;;5050621;28;20263;-61
2023/06/30 05:51:15;;;;;;;20.73;15.60;;;19.20;99.90;;;;;;5048853;28;20229;-60
2023/06/30 05:53:42;;;;;;;19.00;14.70;;;19.30;99.90;;;;;;5050734;28;20280;-60
2023/06/30 05:56:09;;;;;;;22.50;16.50;;;19.20;99.90;;;;;;5046789;28;20275;-60
2023/06/30 05:58:39;;;;;;;21.03;15.43;;;19.30;99.90;;;;;;5048648;28;20615;-60
2023/06/30 06:01:06;;;;;;;20.30;15.33;;;19.30;99.90;;;;;;5044739;28;20218;-60
2023/06/30 06:03:33;;;;;;;18.53;15.23;;;19.30;99.90;;;;;;5050246;28;20259;-59
2023/06/30 06:06:00;;;;;;;19.07;14.60;;;19.30;99.90;;;;;;5051574;28;20275;-60
2023/06/30 06:08:28;;;;;;;20.63;15.53;;;19.40;99.90;;;;;;5050024;28;20268;-60
2023/06/30 06:10:55;;;;;;;21.90;16.20;;;19.40;99.90;;;;;;5050515;28;20194;-60
2023/06/30 06:13:33;;;;;;;18.40;13.67;;;19.40;99.90;;;;;;5049727;28;20232;-61
2023/06/30 06:16:00;;;;;;;18.77;14.63;;;19.40;99.90;;;;;;5045113;28;20203;-60
2023/06/30 06:18:27;;;;;;;20.83;14.63;;;19.40;99.90;;;;;;5045029;28;20190;-60
2023/06/30 06:20:55;;;;;;;18.53;14.23;;;19.40;99.90;;;;;;5050765;28;20231;-60
2023/06/30 06:23:25;;;;;;;19.50;14.23;;;19.50;99.90;;;;;;5051180;28;20194;-60
2023/06/30 06:25:53;;;;;;;22.97;15.60;;;19.60;99.90;;;;;;5045700;28;20206;-59
2023/06/30 06:28:20;;;;;;;20.87;15.27;;;19.70;99.90;;;;;;5052232;28;20205;-60
2023/06/30 06:30:50;;;;;;;17.13;13.50;;;19.70;99.90;;;;;;5062134;28;20255;-59
2023/06/30 06:33:17;;;;;;;22.13;14.83;;;19.80;99.90;;;;;;5050824;28;20733;-59
2023/06/30 06:35:44;;;;;;;17.47;13.77;;;19.80;99.90;;;;;;5051545;28;20198;-60
2023/06/30 06:38:11;;;;;;;20.10;15.70;;;19.90;99.90;;;;;;5049407;28;20651;-59
2023/06/30 06:40:39;;;;;;;18.00;14.37;;;20.00;99.90;;;;;;5050089;28;20611;-61
2023/06/30 06:43:07;;;;;;;23.03;15.47;;;20.10;99.90;;;;;;5050704;28;20289;-59
2023/06/30 06:45:34;;;;;;;17.97;13.37;;;20.10;99.90;;;;;;5051527;28;20202;-60
2023/06/30 06:48:21;;;;;;;21.77;15.53;;;20.10;99.90;;;;;;5049878;28;20275;-60
2023/06/30 06:50:50;;;;;;;22.13;15.13;;;20.10;99.90;;;;;;5043932;28;20619;-59
2023/06/30 06:53:20;;;;;;;21.13;14.33;;;20.10;99.90;;;;;;5055648;28;20214;-59
2023/06/30 06:55:48;;;;;;;18.03;13.17;;;20.10;99.90;;;;;;5054559;28;20277;-59
2023/06/30 06:58:17;;;;;;;17.57;14.23;;;20.20;99.90;;;;;;5071397;28;20205;-60
2023/06/30 07:00:45;;;;;;;16.23;12.77;;;20.30;99.90;;;;;;5071067;28;20205;-59
2023/06/30 07:03:12;;;;;;;15.87;12.97;;;20.30;99.90;;;;;;5067182;28;20209;-59
2023/06/30 07:05:40;;;;;;;20.50;13.67;;;20.30;99.90;;;;;;5036408;28;20245;-59
2023/06/30 07:08:07;;;;;;;17.13;14.63;;;20.30;99.90;;;;;;5046180;28;20659;-59
2023/06/30 07:10:35;;;;;;;16.40;13.33;;;20.40;99.90;;;;;;5045109;28;20581;-59
2023/06/30 07:13:05;;;;;;;21.10;13.73;;;20.40;99.90;;;;;;5055175;28;20264;-59
2023/06/30 07:15:35;;;;;;;20.37;16.23;;;20.40;99.90;;;;;;5053767;28;20206;-58
2023/06/30 07:18:02;;;;;;;23.30;15.20;;;20.50;99.90;;;;;;5054424;28;20683;-60
2023/06/30 07:20:29;;;;;;;17.67;14.13;;;20.50;99.90;;;;;;5052617;28;20267;-59
2023/06/30 07:22:57;;;;;;;18.03;14.33;;;20.50;99.90;;;;;;5051884;28;20272;-59
2023/06/30 07:25:25;;;;;;;20.33;14.17;;;20.50;99.90;;;;;;5055887;28;20252;-60
2023/06/30 07:27:53;;;;;;;21.90;14.53;;;20.40;99.90;;;;;;5045940;28;20780;-59
2023/06/30 07:30:21;;;;;;;18.20;14.13;;;20.50;99.90;;;;;;5053481;28;20619;-60
2023/06/30 07:32:50;;;;;;;18.50;13.93;;;20.50;99.90;;;;;;5050208;28;20691;-59
2023/06/30 07:35:17;;;;;;;17.57;14.90;;;20.60;99.90;;;;;;5047987;28;20198;-59
2023/06/30 07:37:44;;;;;;;20.33;14.17;;;20.60;99.90;;;;;;5051742;28;20275;-60
2023/06/30 07:40:12;;;;;;;18.13;12.73;;;20.60;99.90;;;;;;5051540;28;20206;-59
2023/06/30 07:42:39;;;;;;;17.73;13.70;;;20.60;99.90;;;;;;5053594;28;20214;-59
2023/06/30 07:45:09;;;;;;;15.27;13.67;;;20.60;99.90;;;;;;5052889;28;20232;-59
2023/06/30 07:47:36;;;;;;;17.77;13.83;;;20.60;99.90;;;;;;5053774;28;20205;-59
2023/06/30 07:50:09;;;;;;;17.30;13.30;;;20.50;99.90;;;;;;5053569;28;20260;-60
2023/06/30 07:52:36;;;;;;;16.10;13.60;;;20.50;99.90;;;;;;5053271;28;20694;-60
2023/06/30 07:55:04;;;;;;;17.87;13.50;;;20.50;99.90;;;;;;5052897;28;20247;-59
2023/06/30 07:57:34;;;;;;;20.43;13.47;;;20.40;99.90;;;;;;5049897;28;20244;-59
2023/06/30 08:00:01;;;;;;;16.43;13.83;;;20.40;99.90;;;;;;5051148;28;20681;-60
2023/06/30 08:02:28;;;;;;;17.90;13.80;;;20.40;99.90;;;;;;5052575;28;20218;-59
2023/06/30 08:04:55;;;;;;;15.37;12.63;;;20.30;99.90;;;;;;5052807;28;20744;-59
2023/06/30 08:07:24;;;;;;;15.13;12.73;;;20.30;99.90;;;;;;5052907;28;20201;-59
2023/06/30 08:09:51;;;;;;;17.33;13.37;;;20.30;99.90;;;;;;5052437;28;20198;-59
2023/06/30 08:12:18;;;;;;;18.27;14.87;;;20.30;99.90;;;;;;5053211;28;20252;-59
2023/06/30 08:14:48;;;;;;;19.03;14.40;;;20.30;99.90;;;;;;5053206;28;20205;-59
2023/06/30 08:17:15;;;;;;;19.40;13.70;;;20.40;99.90;;;;;;5051530;28;20672;-60
2023/06/30 08:19:42;;;;;;;18.93;14.50;;;20.50;99.90;;;;;;5052363;28;20205;-60
2023/06/30 08:22:13;;;;;;;16.23;12.57;;;20.40;99.90;;;;;;5052930;28;20225;-59
2023/06/30 08:24:41;;;;;;;18.23;15.10;;;20.40;99.90;;;;;;5053519;28;20259;-59
2023/06/30 08:27:08;;;;;;;17.50;12.90;;;20.30;99.90;;;;;;5053370;28;20212;-60
2023/06/30 08:29:36;;;;;;;17.17;13.63;;;20.30;99.90;;;;;;5053253;28;20224;-59
2023/06/30 08:32:03;;;;;;;18.60;14.50;;;20.30;99.90;;;;;;5053298;28;20226;-59
2023/06/30 08:34:30;;;;;;;20.33;15.53;;;20.30;99.90;;;;;;5053063;28;20206;-59
2023/06/30 08:36:57;;;;;;;18.67;14.77;;;20.40;99.90;;;;;;5052618;28;20248;-59
2023/06/30 08:39:27;;;;;;;19.00;13.97;;;20.30;99.90;;;;;;5052867;28;20223;-59
2023/06/30 08:41:56;;;;;;;19.93;14.73;;;20.20;99.90;;;;;;5036546;28;20222;-59
2023/06/30 08:44:24;;;;;;;20.83;13.83;;;20.20;99.90;;;;;;5052426;28;20259;-59
2023/06/30 08:46:53;;;;;;;18.53;13.67;;;20.30;99.90;;;;;;5050614;28;20570;-59
2023/06/30 08:49:22;;;;;;;14.80;12.90;;;20.30;99.90;;;;;;5052688;28;20208;-59
2023/06/30 08:51:51;;;;;;;18.87;13.97;;;20.30;99.90;;;;;;5052236;28;20230;-59
2023/06/30 08:54:19;;;;;;;18.63;13.77;;;20.30;99.90;;;;;;5052612;28;20217;-60
2023/06/30 08:56:46;;;;;;;19.03;14.13;;;20.40;99.90;;;;;;5052107;28;20255;-59
2023/06/30 08:59:14;;;;;;;17.40;13.67;;;20.50;99.90;;;;;;5051525;28;20208;-59
2023/06/30 09:01:43;;;;;;;17.50;13.63;;;20.40;99.90;;;;;;5052111;28;20710;-59
2023/06/30 09:04:10;;;;;;;17.37;14.03;;;20.40;99.90;;;;;;5046837;28;20659;-60
2023/06/30 09:06:42;;;;;;;15.97;13.00;;;20.40;99.90;;;;;;5052127;28;20575;-60
2023/06/30 09:09:11;;;;;;;18.23;13.77;;;20.50;99.90;;;;;;5051240;28;20252;-60
2023/06/30 09:11:39;;;;;;;20.27;13.60;;;20.40;99.90;;;;;;5049275;28;20327;-59
2023/06/30 09:14:09;;;;;;;20.23;13.33;;;20.30;99.90;;;;;;5051656;28;20291;-60
2023/06/30 09:16:38;;;;;;;17.97;13.30;;;20.30;99.90;;;;;;5050511;28;20729;-60
2023/06/30 09:19:05;;;;;;;18.87;13.50;;;20.30;99.90;;;;;;5049739;28;20201;-60
2023/06/30 09:21:32;;;;;;;19.70;13.03;;;20.30;99.90;;;;;;5051884;28;20234;-60
2023/06/30 09:23:59;;;;;;;18.70;13.57;;;20.30;99.90;;;;;;5056292;22;20234;-52
2023/06/30 09:26:30;;;;;;;19.70;13.47;;;20.30;99.90;;;;;;5031623;28;20674;-52
2023/06/30 09:28:57;;;;;;;18.03;13.33;;;20.40;99.90;;;;;;5030997;28;20311;-53
2023/06/30 09:31:30;;;;;;;16.50;13.70;;;20.50;99.90;;;;;;5030987;28;20260;-52
2023/06/30 09:34:10;;;;;;;18.90;14.43;;;20.50;99.90;;;;;;5030851;28;20676;-52
2023/06/30 09:36:38;;;;;;;19.83;13.47;;;20.60;99.90;;;;;;5027083;28;20206;-52
2023/06/30 09:39:08;;;;;;;20.03;14.90;;;20.60;99.90;;;;;;5030539;28;20209;-52
2023/06/30 09:41:35;;;;;;;19.43;15.03;;;20.60;99.90;;;;;;5031476;28;20198;-52
2023/06/30 09:44:04;;;;;;;19.13;14.17;;;20.70;99.90;;;;;;5031035;28;20218;-52
2023/06/30 09:46:31;;;;;;;18.93;14.10;;;20.70;99.90;;;;;;5031697;28;20249;-52
2023/06/30 09:49:00;;;;;;;20.93;13.77;;;20.70;99.90;;;;;;5029913;28;20202;-52
2023/06/30 09:51:31;;;;;;;20.93;13.77;;;20.80;99.90;;;;;;5023441;28;20194;-52
2023/06/30 09:53:58;;;;;;;16.03;13.07;;;20.90;99.90;;;;;;5031239;28;20272;-52
2023/06/30 09:56:26;;;;;;;17.43;12.57;;;20.90;99.90;;;;;;5030064;28;20206;-52
2023/06/30 09:58:57;;;;;;;16.83;12.43;;;21.00;99.90;;;;;;5031463;28;20202;-52
2023/06/30 10:01:24;;;;;;;16.43;11.13;;;21.20;99.90;;;;;;5027046;28;20206;-53
2023/06/30 10:03:54;;;;;;;16.90;11.90;;;21.40;99.90;;;;;;5025521;28;20280;-52
2023/06/30 10:06:23;;;;;;;16.13;11.10;;;21.50;99.90;;;;;;5027384;28;20285;-52
2023/06/30 10:08:51;;;;;;;15.50;11.30;;;21.60;99.90;;;;;;5029589;28;20692;-52
2023/06/30 10:11:21;;;;;;;15.37;11.73;;;21.60;99.90;;;;;;5027656;28;20676;-52
2023/06/30 10:13:50;;;;;;;18.73;13.07;;;21.60;99.90;;;;;;5026190;28;20265;-52
2023/06/30 10:16:19;;;;;;;20.33;12.57;;;21.60;99.90;;;;;;5036483;28;20199;-52
2023/06/30 10:18:50;;;;;;;17.33;12.43;;;21.60;99.90;;;;;;5029375;28;20264;-52
2023/06/30 10:21:17;;;;;;;15.97;11.47;;;21.50;99.90;;;;;;5030859;28;20218;-52
2023/06/30 10:23:47;;;;;;;16.30;12.27;;;21.60;99.90;;;;;;5029679;28;20349;-52
2023/06/30 10:26:18;;;;;;;17.10;12.10;;;21.70;99.90;;;;;;5030269;28;20687;-52
2023/06/30 10:28:45;;;;;;;16.33;12.23;;;21.70;99.90;;;;;;5031017;28;20225;-52
2023/06/30 10:31:13;;;;;;;19.13;13.60;;;21.70;99.90;;;;;;5030859;28;20207;-52
2023/06/30 10:33:40;;;;;;;18.63;13.50;;;21.80;99.90;;;;;;5029117;28;20249;-52
2023/06/30 10:36:08;;;;;;;17.33;12.30;;;21.80;99.90;;;;;;5030137;28;20205;-52
2023/06/30 10:38:35;;;;;;;16.07;12.40;;;21.80;99.90;;;;;;5031086;28;20688;-52
2023/06/30 10:41:19;;;;;;;18.50;13.53;;;21.90;99.90;;;;;;5030988;28;20201;-52
2023/06/30 10:44:13;;;;;;;20.23;12.83;;;21.90;99.90;;;;;;5033513;28;20229;-52
2023/06/30 10:46:51;;;;;;;19.20;13.83;;;22.00;99.90;;;;;;4981302;28;20246;-52
2023/06/30 10:49:26;;;;;;;17.00;12.70;;;22.00;99.90;;;;;;5015008;28;20210;-52
2023/06/30 10:51:55;;;;;;;16.97;13.67;;;22.00;99.90;;;;;;5020810;28;20248;-52
2023/06/30 10:54:24;;;;;;;18.93;13.37;;;22.10;99.90;;;;;;5034782;28;20219;-51
2023/06/30 10:56:54;;;;;;;20.00;15.67;;;22.20;99.90;;;;;;5034389;28;20263;-51
2023/06/30 10:59:23;;;;;;;19.33;13.97;;;22.20;99.90;;;;;;5034562;28;20688;-57
2023/06/30 11:02:15;;;;;;;26.47;17.07;;;22.10;99.90;;;;;;5034588;28;20899;-57
2023/06/30 11:04:44;;;;;;;18.47;13.40;;;22.00;99.90;;;;;;5033783;28;20202;-57
2023/06/30 11:07:16;;;;;;;22.60;13.30;;;22.00;99.90;;;;;;5028331;28;20210;-57
2023/06/30 11:10:00;;;;;;;21.63;15.23;;;22.10;99.90;;;;;;5032446;28;20198;-57
2023/06/30 11:12:50;;;;;;;23.60;14.73;;;22.10;99.90;;;;;;5032618;28;20226;-57
2023/06/30 11:15:39;;;;;;;18.77;14.23;;;22.10;99.90;;;;;;5028452;28;20664;-57
2023/06/30 11:18:10;;;;;;;19.37;14.20;;;22.00;99.90;;;;;;5033151;28;20206;-56
2023/06/30 11:20:37;;;;;;;19.47;14.53;;;22.00;99.90;;;;;;5033774;28;20644;-57
2023/06/30 11:23:06;;;;;;;21.37;15.07;;;22.10;99.90;;;;;;5033272;28;20313;-56
2023/06/30 11:25:33;;;;;;;18.50;13.23;;;22.00;99.90;;;;;;5032715;28;20206;-57
2023/06/30 11:28:04;;;;;;;23.20;15.23;;;22.00;99.90;;;;;;5032519;28;20198;-56
2023/06/30 11:30:36;;;;;;;18.57;13.93;;;22.10;99.90;;;;;;5034064;28;20205;-56
2023/06/30 11:33:05;;;;;;;22.57;14.47;;;22.10;99.90;;;;;;5032750;28;20222;-56
2023/06/30 11:35:34;;;;;;;22.23;15.57;;;22.10;99.90;;;;;;5033460;28;20203;-52
2023/06/30 11:38:00;;;;;;;21.33;15.57;;;22.10;99.90;;;;;;5032400;28;20199;-59
2023/06/30 11:40:28;;;;;;;21.73;15.20;;;22.10;99.90;;;;;;5032592;28;20202;-59
2023/06/30 11:42:55;;;;;;;21.07;15.17;;;22.20;99.90;;;;;;5032541;28;20222;-62
2023/06/30 11:45:27;;;;;;;22.80;15.87;;;22.30;99.90;;;;;;5033410;28;20202;-60
2023/06/30 11:47:56;;;;;;;20.83;15.50;;;22.50;99.90;;;;;;5033041;28;20248;-61
2023/06/30 11:50:25;;;;;;;23.57;15.97;;;22.60;99.90;;;;;;5033275;28;20256;-60
2023/06/30 11:52:52;;;;;;;19.70;15.00;;;22.60;99.90;;;;;;5033117;28;20218;-60
2023/06/30 11:55:20;;;;;;;20.53;16.03;;;22.60;99.90;;;;;;5031492;28;20317;-58
2023/06/30 11:57:47;;;;;;;20.60;15.67;;;22.60;99.90;;;;;;5031498;28;20198;-58
2023/06/30 12:00:16;;;;;;;19.33;15.03;;;22.60;99.90;;;;;;5033276;28;20264;-58
2023/06/30 12:02:46;;;;;;;21.57;17.47;;;22.60;99.90;;;;;;5032799;28;20341;-59
2023/06/30 12:05:16;;;;;;;19.53;15.63;;;22.40;99.90;;;;;;5032671;28;20665;-57
2023/06/30 12:07:44;;;;;;;21.60;16.73;;;22.60;99.90;;;;;;5030488;28;20249;-56
2023/06/30 12:10:12;;;;;;;22.57;16.47;;;22.70;99.90;;;;;;5032346;28;20195;-57
2023/06/30 12:12:39;;;;;;;21.80;16.30;;;22.70;99.90;;;;;;5032368;28;20720;-57
2023/06/30 12:15:09;;;;;;;19.40;15.80;;;22.70;99.90;;;;;;5032535;28;20226;-59
2023/06/30 12:17:42;;;;;;;22.63;16.67;;;22.70;99.90;;;;;;5033013;28;20321;-57
2023/06/30 12:20:11;;;;;;;25.07;17.77;;;22.90;99.90;;;;;;5031737;28;20820;-58
2023/06/30 12:22:42;;;;;;;25.23;17.93;;;23.00;99.90;;;;;;5032540;28;20231;-58
2023/06/30 12:25:11;;;;;;;23.17;16.87;;;22.90;99.90;;;;;;5032955;28;20191;-56
2023/06/30 12:27:42;;;;;;;24.47;17.37;;;23.20;99.90;;;;;;5032861;28;20210;-58
2023/06/30 12:30:18;;;;;;;25.90;16.50;;;23.40;99.90;;;;;;5013385;28;20209;-58
2023/06/30 12:32:46;;;;;;;20.83;16.43;;;23.70;99.90;;;;;;5012844;28;20724;-58
2023/06/30 12:35:14;;;;;;;25.17;16.27;;;23.90;99.90;;;;;;5013533;28;20237;-58